Time;durP1;ratioP1;P1;durP2;ratioP2;P2;SDS_P1;SDS_P2;PMS_P1;PMS_P2;Temp;Humidity;BMP_temperature;BMP_pressure;BME280_temperature;BME280_humidity;BME280_pressure;Samples;Min_cycle;Max_cycle;Signal;HPM_P1;HPM_P2
2022/12/16 00:01:55;;;;;;;4.05;1.80;;;;;;;1.69;100.00;98987.53;5012877;28;20032;-84
2022/12/16 00:04:20;;;;;;;7.43;1.90;;;;;;;1.70;100.00;98987.41;4979043;28;20488;-83
2022/12/16 00:06:46;;;;;;;4.05;1.55;;;;;;;1.81;100.00;98991.59;4994972;28;20038;-83
2022/12/16 00:09:11;;;;;;;4.72;1.77;;;;;;;1.89;100.00;98974.53;4995804;28;20038;-85
2022/12/16 00:11:37;;;;;;;5.00;1.85;;;;;;;1.80;100.00;98987.38;4996562;28;20475;-84
2022/12/16 00:14:03;;;;;;;8.45;2.10;;;;;;;1.93;100.00;98988.84;5013999;28;20497;-85
2022/12/16 00:16:31;;;;;;;7.82;2.30;;;;;;;2.08;100.00;98979.66;5013877;28;20112;-86
2022/12/16 00:18:56;;;;;;;3.75;2.08;;;;;;;2.18;100.00;98978.84;4979612;28;20029;-87
2022/12/16 00:21:27;;;;;;;6.00;1.90;;;;;;;1.89;100.00;98967.59;4995317;28;20480;-84
2022/12/16 00:23:53;;;;;;;8.55;1.90;;;;;;;2.02;100.00;98985.41;4995708;28;20561;-86
2022/12/16 00:26:19;;;;;;;9.73;1.50;;;;;;;2.00;100.00;98971.81;4996124;28;20030;-86
2022/12/16 00:28:44;;;;;;;3.85;1.42;;;;;;;2.15;100.00;98990.28;5011002;28;20566;-83
2022/12/16 00:31:11;;;;;;;13.25;2.30;;;;;;;2.10;100.00;98982.13;4978915;28;20037;-82
2022/12/16 00:33:37;;;;;;;8.63;3.75;;;;;;;2.18;100.00;98978.84;4995043;28;20030;-83
2022/12/16 00:36:03;;;;;;;6.03;2.45;;;;;;;2.08;100.00;98977.09;4995356;28;20030;-84
2022/12/16 00:38:28;;;;;;;4.68;1.98;;;;;;;2.06;100.00;98960.88;5012761;28;20054;-83
2022/12/16 00:40:54;;;;;;;5.57;2.30;;;;;;;2.19;100.00;98989.03;4994315;28;20028;-82
2022/12/16 00:43:20;;;;;;;8.50;2.70;;;;;;;2.05;100.00;98969.59;5012127;28;20430;-86
2022/12/16 00:45:47;;;;;;;6.95;1.60;;;;;;;2.25;100.00;98962.56;4993091;28;20356;-81
2022/12/16 00:48:13;;;;;;;2.80;1.70;;;;;;;2.23;100.00;98961.88;4992789;28;20037;-84
2022/12/16 00:50:39;;;;;;;8.55;2.05;;;;;;;2.31;100.00;98968.94;4978956;28;20056;-83
2022/12/16 00:53:05;;;;;;;7.18;2.75;;;;;;;2.39;100.00;98979.44;5012233;28;20065;-82
2022/12/16 00:55:31;;;;;;;6.32;2.00;;;;;;;2.37;100.00;98975.34;4994310;28;20034;-84
2022/12/16 00:57:57;;;;;;;5.00;1.95;;;;;;;2.38;100.00;98975.22;4994356;28;20052;-82
2022/12/16 01:00:23;;;;;;;5.00;2.22;;;;;;;2.23;100.00;98974.84;5011725;28;20443;-83
2022/12/16 01:02:50;;;;;;;7.38;2.35;;;;;;;2.09;100.00;98981.28;4997539;28;20041;-85
2022/12/16 01:05:19;;;;;;;5.55;2.30;;;;;;;2.21;100.00;98986.31;4998314;28;20046;-82
2022/12/16 01:07:46;;;;;;;7.57;2.53;;;;;;;2.16;100.00;98976.38;4997862;28;20037;-83
2022/12/16 01:10:12;;;;;;;6.63;2.17;;;;;;;2.24;100.00;98988.63;4981762;28;20034;-82
2022/12/16 01:12:38;;;;;;;5.70;2.20;;;;;;;2.25;100.00;98985.88;4997988;28;20034;-84
2022/12/16 01:15:07;;;;;;;6.55;1.90;;;;;;;2.20;100.00;98992.47;4981495;28;20033;-83
2022/12/16 01:17:34;;;;;;;6.40;2.00;;;;;;;2.26;100.00;98986.69;4997959;28;20368;-81
2022/12/16 01:20:01;;;;;;;10.82;3.35;;;;;;;2.12;100.00;98956.91;5015585;28;22043;-83
2022/12/16 01:22:30;;;;;;;5.25;2.00;;;;;;;2.09;100.00;98978.72;4981534;28;20030;-84
2022/12/16 01:24:56;;;;;;;7.13;1.80;;;;;;;1.98;100.00;98990.06;4998003;28;20034;-83
2022/12/16 01:27:22;;;;;;;11.48;2.40;;;;;;;1.82;100.00;98969.09;4997966;28;20030;-84
2022/12/16 01:29:49;;;;;;;5.47;2.17;;;;;;;1.87;100.00;98972.13;4998034;28;20022;-83
2022/12/16 01:32:15;;;;;;;7.78;2.35;;;;;;;1.82;100.00;98990.63;4997968;28;20060;-85
2022/12/16 01:34:41;;;;;;;5.07;2.00;;;;;;;1.78;100.00;98978.09;4981390;28;20387;-83
2022/12/16 01:37:11;;;;;;;5.68;2.10;;;;;;;1.82;100.00;98989.81;5015758;28;20037;-86
2022/12/16 01:39:36;;;;;;;5.45;2.08;;;;;;;1.45;100.00;98970.66;4998000;28;20046;-84
2022/12/16 01:42:02;;;;;;;13.13;3.25;;;;;;;1.59;100.00;98989.31;4980959;28;20029;-84
2022/12/16 01:44:28;;;;;;;4.47;1.70;;;;;;;1.56;100.00;98975.69;4997726;28;20021;-82
2022/12/16 01:46:59;;;;;;;5.80;1.80;;;;;;;1.64;100.00;98994.88;4981332;28;20042;-85
2022/12/16 01:49:52;;;;;;;5.82;1.25;;;;;;;1.71;100.00;98978.69;4999142;28;20471;-84
2022/12/16 01:52:23;;;;;;;11.15;2.13;;;;;;;1.79;100.00;98997.84;5013409;28;20037;-87
2022/12/16 01:54:59;;;;;;;5.65;1.73;;;;;;;1.56;100.00;99000.75;5014220;28;20064;-84
2022/12/16 01:57:32;;;;;;;5.45;1.45;;;;;;;1.64;100.00;98994.88;4998696;28;20052;-86
2022/12/16 01:59:59;;;;;;;1.80;1.27;;;;;;;1.62;100.00;99009.75;4981343;28;20030;-85
2022/12/16 02:02:25;;;;;;;6.63;1.45;;;;;;;1.55;100.00;98993.94;5000133;28;20061;-86
2022/12/16 02:07:36;;;;;;;4.38;1.30;;;;;;;1.61;100.00;99019.25;5016051;28;20057;-83
2022/12/16 02:10:03;;;;;;;5.65;1.48;;;;;;;1.74;100.00;99016.38;4999676;28;20030;-86
2022/12/16 02:12:45;;;;;;;3.53;2.00;;;;;;;1.73;100.00;99017.34;4983547;28;20471;-87
2022/12/16 02:15:10;;;;;;;3.25;1.30;;;;;;;1.67;100.00;99017.91;4982586;28;20113;-86
2022/12/16 02:18:20;;;;;;;1.90;1.20;;;;;;;1.98;100.00;99009.97;4998757;28;20058;-86
2022/12/16 02:21:07;;;;;;;5.82;1.67;;;;;;;1.99;100.00;99014.97;4917728;29;20051;-88
2022/12/16 02:23:33;;;;;;;4.55;1.23;;;;;;;2.04;100.00;99014.56;4998588;28;20036;-86
2022/12/16 02:26:23;;;;;;;6.30;1.80;;;;;;;2.10;100.00;99013.19;5014302;28;20029;-85
2022/12/16 02:28:58;;;;;;;5.43;1.70;;;;;;;2.16;100.00;99022.16;4981600;28;20066;-87
2022/12/16 02:31:48;;;;;;;8.38;1.67;;;;;;;2.17;100.00;99023.81;4999328;28;20034;-87
2022/12/16 02:34:20;;;;;;;6.20;1.40;;;;;;;1.98;100.00;99023.72;4982379;28;20396;-86
2022/12/16 02:36:55;;;;;;;5.03;2.03;;;;;;;1.80;100.00;99023.63;4982295;28;20065;-89
2022/12/16 02:39:51;;;;;;;4.30;1.60;;;;;;;2.00;100.00;99026.97;4999823;28;20087;-87
2022/12/16 02:42:22;;;;;;;6.22;1.65;;;;;;;1.65;100.00;99019.81;4981370;28;20028;-87
2022/12/16 02:45:02;;;;;;;3.45;1.70;;;;;;;1.51;100.00;99014.09;4997329;28;20552;-86
2022/12/16 02:47:30;;;;;;;7.47;1.80;;;;;;;1.69;100.00;99024.56;4997770;28;20444;-87
2022/12/16 02:49:56;;;;;;;12.77;3.33;;;;;;;1.51;100.00;99018.47;4982870;28;20034;-87
2022/12/16 02:52:24;;;;;;;11.52;4.35;;;;;;;1.70;100.00;98997.75;5017222;28;20028;-89
2022/12/16 02:54:55;;;;;;;7.15;2.00;;;;;;;1.76;100.00;99001.53;5017144;28;20033;-87
2022/12/16 02:58:00;;;;;;;4.20;2.17;;;;;;;1.63;100.00;99013.94;4999304;28;20357;-88
2022/12/16 03:00:36;;;;;;;10.20;3.08;;;;;;;1.50;100.00;98999.50;4985981;28;20042;-86
2022/12/16 03:03:28;;;;;;;11.43;3.70;;;;;;;1.46;100.00;99005.09;4997315;28;20438;-84
2022/12/16 03:05:56;;;;;;;2.15;1.45;;;;;;;1.38;100.00;98998.84;4992943;28;20484;-87
2022/12/16 03:08:29;;;;;;;7.85;1.30;;;;;;;1.35;100.00;99001.69;4980460;28;20099;-85
2022/12/16 03:11:01;;;;;;;5.13;1.17;;;;;;;1.20;100.00;99006.47;5011575;28;20092;-85
2022/12/16 03:13:32;;;;;;;2.55;1.08;;;;;;;1.30;100.00;99009.06;4995385;28;20037;-83
2022/12/16 03:16:01;;;;;;;3.38;1.20;;;;;;;1.25;100.00;98988.78;5014257;28;20493;-86
2022/12/16 03:18:28;;;;;;;11.60;2.05;;;;;;;1.23;100.00;98993.25;4997315;28;20482;-86
2022/12/16 03:21:06;;;;;;;2.42;1.30;;;;;;;1.33;100.00;99000.19;4997242;28;20029;-86
2022/12/16 03:23:53;;;;;;;7.70;1.73;;;;;;;1.30;100.00;99016.81;4979566;28;20033;-86
2022/12/16 03:26:28;;;;;;;9.48;1.38;;;;;;;1.09;100.00;99004.81;5015711;28;20191;-86
2022/12/16 03:29:35;;;;;;;3.90;1.42;;;;;;;1.09;100.00;99012.56;4981120;28;20105;-83
2022/12/16 03:32:11;;;;;;;4.20;1.58;;;;;;;1.12;100.00;99008.88;4996373;28;20037;-84
2022/12/16 03:34:49;;;;;;;3.70;1.40;;;;;;;1.26;100.00;99000.75;5013171;28;20029;-86
2022/12/16 03:37:15;;;;;;;4.13;1.30;;;;;;;1.35;100.00;99009.47;5015094;28;20022;-86
2022/12/16 03:39:48;;;;;;;2.55;1.35;;;;;;;1.36;100.00;99007.69;4980694;28;20045;-86
2022/12/16 03:42:17;;;;;;;3.45;1.25;;;;;;;1.27;100.00;99007.56;4996157;28;20383;-84
2022/12/16 03:44:48;;;;;;;1.65;1.02;;;;;;;1.20;100.00;98993.53;4995381;28;20396;-85
2022/12/16 03:47:14;;;;;;;10.43;2.13;;;;;;;1.37;100.00;99011.91;4995163;28;20116;-83
2022/12/16 03:49:40;;;;;;;2.53;1.17;;;;;;;1.24;100.00;98992.31;5013049;28;20062;-85
2022/12/16 03:52:06;;;;;;;4.70;1.20;;;;;;;1.37;100.00;98996.38;4995952;28;20038;-83
2022/12/16 03:54:32;;;;;;;4.80;1.38;;;;;;;1.35;100.00;98998.28;4996129;28;20386;-84
2022/12/16 03:56:58;;;;;;;2.28;1.30;;;;;;;1.55;100.00;99020.59;5013149;28;20040;-84
2022/12/16 03:59:24;;;;;;;3.22;1.48;;;;;;;1.38;100.00;99027.28;4995849;28;20030;-83
2022/12/16 04:01:50;;;;;;;7.85;1.58;;;;;;;1.41;100.00;99023.63;4978860;28;20029;-85
2022/12/16 04:04:17;;;;;;;6.00;1.52;;;;;;;1.30;100.00;99026.34;4978533;28;20586;-83
2022/12/16 04:06:43;;;;;;;8.02;1.20;;;;;;;1.33;100.00;99013.13;4994964;28;20053;-85
2022/12/16 04:09:08;;;;;;;1.45;1.00;;;;;;;1.25;100.00;99008.63;4995469;28;20095;-85
2022/12/16 04:25:27;;;;;;;4.75;1.63;;;;;;;1.27;100.00;99017.91;5013249;28;20022;-85
2022/12/16 04:27:52;;;;;;;5.82;1.02;;;;;;;1.38;100.00;99008.38;4994985;28;20431;-84
2022/12/16 04:30:20;;;;;;;5.20;1.13;;;;;;;1.45;100.00;99024.97;4979283;28;20081;-87
